Veurne, Belgium
Current Conditions -  °F | °C
As of 1:55 AM on Thursday 23 Oct 2014 (Local Time) from EBFN Reporting Station
Broken Clouds Broken Clouds  
Wind Chill: 10°   Ceiling: 9000
Heat Index: 10°   Visibility: 6mi
Dew Point:   Wind: 6mph
Humidity: 87%   Direction: 210°SSW
Pressure: 30.21"   Gusts: NA
Location:  51.07°N, 2.66°E
Report Text: EBFN 222355Z 21005KT 9000 FEW027 SCT042 BKN090 10/08 Q1023 BLU
Loading
Personal Weather Stations






























Interactive Weather Map
Tropical Storm Tracking
New forecast layout! Learn more

10-Day Weather Forecast

Advertisements
Track Severe Weather on mobile